createdAt,value
2018-03-21T00:02:01.040Z,102073.84
2018-03-21T00:04:28.550Z,102086.95
2018-03-21T00:06:56.055Z,102081.95
2018-03-21T00:09:23.588Z,102086.36
2018-03-21T00:11:51.164Z,102092.69
2018-03-21T00:14:18.686Z,102094.00
2018-03-21T00:16:46.305Z,102097.16
2018-03-21T00:19:13.796Z,102091.52
2018-03-21T00:21:41.323Z,102098.94
2018-03-21T00:24:08.877Z,102094.65
2018-03-21T00:26:36.420Z,102099.94
2018-03-21T00:29:03.964Z,102100.97
2018-03-21T00:31:31.769Z,102097.14
2018-03-21T00:33:59.293Z,102104.13
2018-03-21T00:36:26.835Z,102105.55
2018-03-21T00:38:54.381Z,102111.27
2018-03-21T00:41:21.898Z,102114.43
2018-03-21T00:43:49.430Z,102112.41
2018-03-21T00:46:16.989Z,102117.63
2018-03-21T00:48:44.571Z,102114.69
2018-03-21T00:51:12.358Z,102113.59
2018-03-21T00:53:39.905Z,102116.93
2018-03-21T00:56:07.603Z,102116.08
2018-03-21T00:58:35.123Z,102116.44
2018-03-21T01:01:02.649Z,102115.55
2018-03-21T01:03:30.151Z,102122.67
2018-03-21T01:05:57.644Z,102124.73
2018-03-21T01:08:25.152Z,102131.66
2018-03-21T01:10:52.664Z,102128.14
2018-03-21T01:13:20.188Z,102134.06
2018-03-21T01:15:47.786Z,102133.78
2018-03-21T01:18:15.353Z,102137.83
2018-03-21T01:20:42.865Z,102135.27
2018-03-21T01:23:10.441Z,102139.70
2018-03-21T01:25:37.970Z,102144.53
2018-03-21T01:28:05.739Z,102142.68
2018-03-21T01:30:33.283Z,102144.88
2018-03-21T01:33:00.796Z,102146.19
2018-03-21T01:35:28.307Z,102145.02
2018-03-21T01:37:58.316Z,102145.62
2018-03-21T01:40:26.001Z,102145.54
2018-03-21T01:42:53.648Z,102147.94
2018-03-21T01:45:21.226Z,102142.02
2018-03-21T01:47:48.734Z,102148.08
2018-03-21T01:50:16.244Z,102149.45
2018-03-21T01:52:43.795Z,102157.40
2018-03-21T01:55:11.319Z,102159.20
2018-03-21T01:57:38.833Z,102162.42
2018-03-21T02:00:06.386Z,102165.55
2018-03-21T02:02:33.920Z,102165.12
2018-03-21T02:05:01.445Z,102164.33
2018-03-21T02:07:29.722Z,102164.83
2018-03-21T02:09:57.247Z,102169.03
2018-03-21T02:12:25.045Z,102164.38
2018-03-21T02:14:52.619Z,102165.00
2018-03-21T02:17:20.149Z,102158.84
2018-03-21T02:19:47.676Z,102161.06
2018-03-21T02:22:15.256Z,102165.95
2018-03-21T02:24:42.913Z,102158.13
2018-03-21T02:27:10.418Z,102159.36
2018-03-21T02:29:38.084Z,102161.98
2018-03-21T02:32:05.594Z,102152.94
2018-03-21T02:34:33.108Z,102159.47
2018-03-21T02:37:00.762Z,102157.44
2018-03-21T02:39:28.630Z,102161.04
2018-03-21T02:41:56.187Z,102162.48
2018-03-21T02:44:23.722Z,102164.29
2018-03-21T02:46:51.613Z,102166.84
2018-03-21T02:49:19.145Z,102170.42
2018-03-21T02:51:46.712Z,102161.60
2018-03-21T02:54:14.816Z,102161.60
2018-03-21T02:56:42.439Z,102164.36
2018-03-21T02:59:10.564Z,102160.48
2018-03-21T03:01:38.113Z,102160.45
2018-03-21T03:04:05.637Z,102160.95
2018-03-21T03:06:33.205Z,102159.64
2018-03-21T03:09:00.724Z,102166.29
2018-03-21T03:11:28.241Z,102161.86
2018-03-21T03:13:55.802Z,102160.52
2018-03-21T03:16:23.970Z,102164.88
2018-03-21T03:18:51.470Z,102160.66
2018-03-21T03:21:19.005Z,102160.23
2018-03-21T03:23:46.588Z,102167.53
2018-03-21T03:26:14.127Z,102165.50
2018-03-21T03:28:42.388Z,102165.83
2018-03-21T03:31:09.924Z,102168.42
2018-03-21T03:33:37.447Z,102173.50
2018-03-21T03:36:05.297Z,102171.34
2018-03-21T03:38:32.844Z,102170.09
2018-03-21T03:41:00.390Z,102168.97
2018-03-21T03:43:27.952Z,102162.94
2018-03-21T03:45:55.610Z,102170.97
2018-03-21T03:48:23.203Z,102175.23
2018-03-21T03:50:50.754Z,102169.56
2018-03-21T03:53:18.291Z,102169.11
2018-03-21T03:55:45.820Z,102160.45
2018-03-21T03:58:13.386Z,102163.63
2018-03-21T04:00:40.911Z,102165.30
2018-03-21T04:03:08.431Z,102168.45
2018-03-21T04:05:35.982Z,102170.73
2018-03-21T04:08:03.517Z,102170.87
2018-03-21T04:10:31.022Z,102173.88
2018-03-21T04:12:58.587Z,102168.67
2018-03-21T04:15:26.095Z,102172.33
2018-03-21T04:17:53.656Z,102178.77
2018-03-21T04:20:21.264Z,102176.12
2018-03-21T04:22:48.800Z,102170.13
2018-03-21T04:25:16.311Z,102177.62
2018-03-21T04:27:43.864Z,102178.97
2018-03-21T04:30:11.385Z,102171.05
2018-03-21T04:32:38.909Z,102176.20
2018-03-21T04:35:06.527Z,102177.23
2018-03-21T04:37:34.031Z,102174.14
2018-03-21T04:40:01.538Z,102169.27
2018-03-21T04:42:29.096Z,102172.93
2018-03-21T04:44:56.634Z,102170.21
2018-03-21T04:47:24.155Z,102164.70
2018-03-21T04:49:51.730Z,102168.94
2018-03-21T04:52:19.230Z,102164.19
2018-03-21T04:54:46.815Z,102171.59
2018-03-21T04:57:14.677Z,102169.47
2018-03-21T04:59:42.228Z,102176.56
2018-03-21T05:02:09.998Z,102174.59
2018-03-21T05:04:37.548Z,102171.48
2018-03-21T05:07:05.081Z,102174.89
2018-03-21T05:09:32.609Z,102177.82
2018-03-21T05:12:00.166Z,102176.60
2018-03-21T05:14:27.683Z,102181.29
2018-03-21T05:16:55.961Z,102180.86
2018-03-21T05:19:23.499Z,102185.95
2018-03-21T05:21:51.027Z,102188.05
2018-03-21T05:24:18.674Z,102183.54
2018-03-21T05:26:46.555Z,102183.69
2018-03-21T05:29:14.142Z,102189.94
2018-03-21T05:31:41.707Z,102183.36
2018-03-21T05:34:09.251Z,102196.67
2018-03-21T05:36:36.777Z,102192.71
2018-03-21T05:39:04.319Z,102196.12
2018-03-21T05:41:31.912Z,102191.92
2018-03-21T05:43:59.760Z,102188.30
2018-03-21T05:46:27.287Z,102185.34
2018-03-21T05:48:54.829Z,102188.35
2018-03-21T05:51:22.395Z,102192.46
2018-03-21T05:53:49.913Z,102189.05
2018-03-21T05:56:17.464Z,102189.45
2018-03-21T05:58:44.980Z,102186.80
2018-03-21T06:01:12.513Z,102190.08
2018-03-21T06:03:40.156Z,102192.09
2018-03-21T06:06:07.710Z,102183.77
2018-03-21T06:08:35.273Z,102182.17
2018-03-21T06:11:02.807Z,102190.63
2018-03-21T06:13:30.592Z,102190.92
2018-03-21T06:15:58.850Z,102187.47
2018-03-21T06:18:26.741Z,102195.09
2018-03-21T06:20:54.510Z,102194.28
2018-03-21T06:23:22.028Z,102196.25
2018-03-21T06:25:49.587Z,102203.14
2018-03-21T06:28:17.114Z,102202.30
2018-03-21T06:30:44.635Z,102204.61
2018-03-21T06:33:12.186Z,102212.43
2018-03-21T06:35:39.688Z,102207.16
2018-03-21T06:38:07.175Z,102207.30
2018-03-21T06:40:34.714Z,102206.50
2018-03-21T06:43:02.547Z,102210.07
2018-03-21T06:45:30.072Z,102206.56
2018-03-21T06:47:57.697Z,102211.48
2018-03-21T06:50:25.391Z,102204.91
2018-03-21T06:52:52.938Z,102206.10
2018-03-21T06:55:20.492Z,102211.36
2018-03-21T06:57:48.012Z,102210.32
2018-03-21T07:00:15.676Z,102211.50
2018-03-21T07:02:43.754Z,102212.14
2018-03-21T07:05:11.273Z,102217.45
2018-03-21T07:07:39.095Z,102224.06
2018-03-21T07:10:06.687Z,102224.56
2018-03-21T07:12:34.182Z,102225.85
2018-03-21T07:15:13.463Z,102230.59
2018-03-21T07:17:41.300Z,102232.16
2018-03-21T07:20:08.848Z,102230.11
2018-03-21T07:22:36.365Z,102237.45
2018-03-21T07:25:04.209Z,102224.66
2018-03-21T07:27:32.112Z,102227.05
2018-03-21T07:29:59.657Z,102234.38
2018-03-21T07:32:27.260Z,102231.34
2018-03-21T07:34:54.807Z,102229.16
2018-03-21T07:37:22.384Z,102224.79
2018-03-21T07:39:49.912Z,102231.41
2018-03-21T07:42:17.426Z,102233.59
2018-03-21T07:44:44.963Z,102232.89
2018-03-21T07:47:12.789Z,102232.24
2018-03-21T07:49:40.321Z,102232.52
2018-03-21T07:52:07.895Z,102235.59
2018-03-21T07:54:35.751Z,102233.56
2018-03-21T07:57:03.259Z,102231.55
2018-03-21T07:59:31.001Z,102229.62
2018-03-21T08:01:58.532Z,102232.19
2018-03-21T08:04:26.078Z,102228.81
2018-03-21T08:06:53.612Z,102233.99
2018-03-21T08:09:21.197Z,102229.23
2018-03-21T08:11:48.726Z,102225.45
2018-03-21T08:14:16.295Z,102223.88
2018-03-21T08:16:43.978Z,102228.18
2018-03-21T08:19:11.539Z,102232.36
2018-03-21T08:21:39.321Z,102237.44
2018-03-21T08:24:07.784Z,102238.45
2018-03-21T08:26:35.516Z,102241.78
2018-03-21T08:29:03.887Z,102241.64
2018-03-21T08:31:31.404Z,102241.20
2018-03-21T08:33:59.471Z,102240.31
2018-03-21T08:36:27.056Z,102241.14
2018-03-21T08:38:54.600Z,102243.48
2018-03-21T08:41:22.170Z,102241.90
2018-03-21T08:43:49.770Z,102241.07
2018-03-21T08:46:17.334Z,102241.73
2018-03-21T08:48:46.280Z,102244.06
2018-03-21T08:51:13.856Z,102244.55
2018-03-21T08:53:41.485Z,102245.75
2018-03-21T08:56:09.267Z,102244.75
2018-03-21T08:58:36.862Z,102234.50
2018-03-21T09:01:04.414Z,102240.20
2018-03-21T09:03:31.960Z,102233.97
2018-03-21T09:05:59.525Z,102230.16
2018-03-21T09:08:27.081Z,102223.52
2018-03-21T09:10:54.616Z,102219.59
2018-03-21T09:13:22.653Z,102222.41
2018-03-21T09:15:51.496Z,102224.38
2018-03-21T09:18:19.132Z,102228.30
2018-03-21T09:20:46.683Z,102217.15
2018-03-21T09:23:14.280Z,102215.28
2018-03-21T09:25:41.808Z,102216.96
2018-03-21T09:28:09.338Z,102215.27
2018-03-21T09:30:36.852Z,102212.50
2018-03-21T09:33:04.385Z,102202.19
2018-03-21T09:35:32.043Z,102204.41
2018-03-21T09:37:59.954Z,102205.85
2018-03-21T09:40:27.473Z,102207.20
2018-03-21T09:42:55.226Z,102208.84
2018-03-21T09:45:22.734Z,102218.66
2018-03-21T09:47:50.245Z,102206.90
2018-03-21T09:50:17.775Z,102209.27
2018-03-21T09:52:45.299Z,102207.80
2018-03-21T09:55:13.181Z,102206.94
2018-03-21T09:57:40.711Z,102212.47
2018-03-21T10:00:08.220Z,102210.59
2018-03-21T10:02:35.758Z,102209.17
2018-03-21T10:05:03.628Z,102206.70
2018-03-21T10:07:31.383Z,102197.49
2018-03-21T10:09:59.882Z,102196.97
2018-03-21T10:12:27.509Z,102194.12
2018-03-21T10:14:55.042Z,102189.52
2018-03-21T10:17:22.568Z,102190.47
2018-03-21T10:19:50.161Z,102185.58
2018-03-21T10:22:17.689Z,102185.59
2018-03-21T10:24:45.252Z,102186.81
2018-03-21T10:27:12.854Z,102186.27
2018-03-21T10:29:40.373Z,102181.94
2018-03-21T10:32:07.874Z,102182.86
2018-03-21T10:34:35.425Z,102177.38
2018-03-21T10:37:02.959Z,102180.31
2018-03-21T10:39:30.944Z,102173.92
2018-03-21T10:41:58.506Z,102173.00
2018-03-21T10:44:26.137Z,102162.83
2018-03-21T10:46:53.682Z,102166.84
2018-03-21T10:49:21.248Z,102167.19
2018-03-21T10:51:48.763Z,102166.41
2018-03-21T10:54:16.276Z,102168.05
2018-03-21T10:56:43.849Z,102162.42
2018-03-21T10:59:11.764Z,102164.39
2018-03-21T11:01:41.930Z,102161.50
2018-03-21T11:04:18.276Z,102159.33
2018-03-21T11:06:45.835Z,102155.52
2018-03-21T11:09:13.388Z,102155.55
2018-03-21T11:11:40.976Z,102154.63
2018-03-21T11:14:08.470Z,102150.87
2018-03-21T11:16:36.308Z,102151.80
2018-03-21T11:19:03.883Z,102153.05
2018-03-21T11:21:32.104Z,102157.25
2018-03-21T11:23:59.617Z,102157.53
2018-03-21T11:26:27.194Z,102153.84
2018-03-21T11:28:54.749Z,102150.87
2018-03-21T11:31:22.227Z,102151.18
2018-03-21T11:33:49.754Z,102145.66
2018-03-21T11:36:17.292Z,102150.59
2018-03-21T11:38:44.813Z,102148.33
2018-03-21T11:41:12.365Z,102140.03
2018-03-21T11:43:39.885Z,102138.48
2018-03-21T11:46:07.622Z,102137.88
2018-03-21T11:48:35.317Z,102136.39
2018-03-21T11:51:02.881Z,102133.62
2018-03-21T11:53:30.490Z,102134.02
2018-03-21T11:55:58.105Z,102126.63
2018-03-21T11:58:25.625Z,102123.23
2018-03-21T12:00:53.190Z,102119.23
2018-03-21T12:03:20.730Z,102127.10
2018-03-21T12:05:48.231Z,102128.77
2018-03-21T12:08:15.845Z,102120.64
2018-03-21T12:10:43.770Z,102125.28
2018-03-21T12:13:11.469Z,102117.74
2018-03-21T12:15:39.090Z,102118.45
2018-03-21T12:18:06.877Z,102115.07
2018-03-21T12:20:34.487Z,102110.02
2018-03-21T12:23:03.034Z,102104.37
2018-03-21T12:25:30.654Z,102099.80
2018-03-21T12:27:58.174Z,102092.70
2018-03-21T12:30:25.755Z,102087.13
2018-03-21T12:32:53.330Z,102089.89
2018-03-21T12:35:20.959Z,102091.86
2018-03-21T12:37:48.546Z,102087.36
2018-03-21T12:40:16.246Z,102086.25
2018-03-21T12:42:43.824Z,102082.56
2018-03-21T12:45:11.359Z,102085.56
2018-03-21T12:47:38.901Z,102092.78
2018-03-21T12:50:06.420Z,102081.73
2018-03-21T12:52:33.968Z,102087.07
2018-03-21T12:55:01.498Z,102088.16
2018-03-21T12:57:29.063Z,102077.94
2018-03-21T12:59:56.588Z,102079.42
2018-03-21T13:02:24.184Z,102077.13
2018-03-21T13:04:52.318Z,102074.19
2018-03-21T13:07:19.835Z,102069.98
2018-03-21T13:09:47.445Z,102077.45
2018-03-21T13:12:15.248Z,102080.41
2018-03-21T13:14:42.745Z,102067.87
2018-03-21T13:17:10.293Z,102056.52
2018-03-21T13:19:38.114Z,102059.55
2018-03-21T13:22:05.630Z,102052.73
2018-03-21T13:24:33.218Z,102055.52
2018-03-21T13:27:00.813Z,102059.56
2018-03-21T13:29:28.369Z,102052.77
2018-03-21T13:31:56.754Z,102048.91
2018-03-21T13:34:24.610Z,102050.44
2018-03-21T13:36:52.145Z,102055.38
2018-03-21T13:39:19.941Z,102048.36
2018-03-21T13:41:47.562Z,102051.88
2018-03-21T13:44:15.730Z,102065.95
2018-03-21T13:46:43.394Z,102056.94
2018-03-21T13:49:11.218Z,102049.16
2018-03-21T13:51:39.059Z,102047.66
2018-03-21T13:54:06.606Z,102056.86
2018-03-21T13:56:34.133Z,102051.80
2018-03-21T13:59:01.959Z,102050.66
2018-03-21T14:01:29.488Z,102052.66
2018-03-21T14:03:57.016Z,102057.23
2018-03-21T14:06:24.629Z,102051.89
2018-03-21T14:08:52.171Z,102061.42
2018-03-21T14:11:19.756Z,102059.48
2018-03-21T14:13:47.284Z,102051.61
2018-03-21T14:16:14.890Z,102055.59
2018-03-21T14:18:42.501Z,102049.03
2018-03-21T14:21:10.019Z,102047.13
2018-03-21T14:23:37.579Z,102040.97
2018-03-21T14:26:05.090Z,102039.02
2018-03-21T14:28:32.603Z,102029.02
2018-03-21T14:31:00.236Z,102021.48
2018-03-21T14:33:27.746Z,102033.66
2018-03-21T14:35:55.288Z,102018.67
2018-03-21T14:38:22.832Z,102016.66
2018-03-21T14:40:50.357Z,102006.42
2018-03-21T14:43:18.088Z,102007.70
2018-03-21T14:45:45.748Z,102011.41
2018-03-21T14:48:13.325Z,102008.25
2018-03-21T14:50:40.835Z,102001.52
2018-03-21T14:53:08.423Z,101992.91
2018-03-21T14:55:35.904Z,101997.67
2018-03-21T14:58:03.504Z,101990.54
2018-03-21T15:00:31.092Z,101991.18
2018-03-21T15:02:58.666Z,101993.48
2018-03-21T15:05:26.196Z,101978.50
2018-03-21T15:07:53.732Z,101981.10
2018-03-21T15:10:21.269Z,101977.67
2018-03-21T15:12:48.789Z,101973.58
2018-03-21T15:15:16.354Z,101968.81
2018-03-21T15:17:43.865Z,101963.39
2018-03-21T15:20:11.363Z,101969.17
2018-03-21T15:22:38.890Z,101973.39
2018-03-21T15:25:06.399Z,101971.48
2018-03-21T15:27:33.941Z,101970.58
2018-03-21T15:30:01.816Z,101966.91
2018-03-21T15:32:29.573Z,101971.08
2018-03-21T15:34:57.068Z,101960.45
2018-03-21T15:37:24.617Z,101959.27
2018-03-21T15:39:52.456Z,101955.26
2018-03-21T15:42:19.958Z,101958.70
2018-03-21T15:44:47.510Z,101959.84
2018-03-21T15:47:15.361Z,101958.47
2018-03-21T15:49:42.863Z,101957.20
2018-03-21T15:52:10.430Z,101959.37
2018-03-21T15:54:37.946Z,101957.00
2018-03-21T15:57:05.460Z,101964.71
2018-03-21T15:59:33.015Z,101955.84
2018-03-21T16:02:00.531Z,101959.70
2018-03-21T16:04:28.069Z,101959.70
2018-03-21T16:06:55.697Z,101957.46
2018-03-21T16:09:23.210Z,101959.89
2018-03-21T16:11:51.724Z,101955.78
2018-03-21T16:14:19.294Z,101957.94
2018-03-21T16:16:46.808Z,101957.75
2018-03-21T16:19:14.333Z,101953.10
2018-03-21T16:21:41.859Z,101948.95
2018-03-21T16:24:09.529Z,101952.09
2018-03-21T16:26:37.050Z,101951.62
2018-03-21T16:29:04.610Z,101952.46
2018-03-21T16:31:32.112Z,101950.77
2018-03-21T16:33:59.922Z,101944.70
2018-03-21T16:36:27.495Z,101951.67
2018-03-21T16:38:55.045Z,101948.42
2018-03-21T16:41:22.585Z,101955.66
2018-03-21T16:43:50.144Z,101951.87
2018-03-21T16:46:17.938Z,101958.70
2018-03-21T16:48:45.495Z,101952.25
2018-03-21T16:51:13.131Z,101955.92
2018-03-21T16:53:40.650Z,101951.46
2018-03-21T16:56:08.405Z,101952.53
2018-03-21T16:58:36.248Z,101952.91
2018-03-21T17:01:03.774Z,101952.66
2018-03-21T17:03:31.296Z,101951.81
2018-03-21T17:05:58.933Z,101954.06
2018-03-21T17:08:26.460Z,101960.48
2018-03-21T17:10:53.991Z,101960.13
2018-03-21T17:13:21.548Z,101957.11
2018-03-21T17:15:49.049Z,101960.48
2018-03-21T17:18:16.600Z,101957.41
2018-03-21T17:20:44.148Z,101958.87
2018-03-21T17:23:12.621Z,101959.58
2018-03-21T17:25:40.204Z,101954.87
2018-03-21T17:28:07.800Z,101955.70
2018-03-21T17:30:35.663Z,101951.84
2018-03-21T17:33:04.472Z,101953.27
2018-03-21T17:35:32.082Z,101950.67
2018-03-21T17:37:59.640Z,101954.59
2018-03-21T17:40:27.156Z,101950.14
2018-03-21T17:42:54.868Z,101938.65
2018-03-21T17:45:22.415Z,101937.70
2018-03-21T17:47:49.931Z,101938.49
2018-03-21T17:50:17.467Z,101930.28
2018-03-21T17:52:45.042Z,101935.31
2018-03-21T17:55:12.865Z,101931.67
2018-03-21T17:57:41.993Z,101928.73
2018-03-21T18:00:09.518Z,101934.95
2018-03-21T18:02:37.048Z,101927.98
2018-03-21T18:05:04.598Z,101935.29
2018-03-21T18:07:32.097Z,101930.33
2018-03-21T18:09:59.927Z,101932.77
2018-03-21T18:12:27.489Z,101938.36
2018-03-21T18:14:55.057Z,101938.07
2018-03-21T18:17:22.907Z,101933.58
2018-03-21T18:19:50.436Z,101932.25
2018-03-21T18:22:18.016Z,101931.66
2018-03-21T18:24:45.535Z,101925.81
2018-03-21T18:27:13.064Z,101921.84
2018-03-21T18:29:40.589Z,101924.48
2018-03-21T18:32:08.186Z,101918.73
2018-03-21T18:34:35.689Z,101920.05
2018-03-21T18:37:03.493Z,101918.16
2018-03-21T18:39:31.453Z,101909.32
2018-03-21T18:41:59.032Z,101911.99
2018-03-21T18:44:26.649Z,101912.86
2018-03-21T18:46:54.509Z,101907.31
2018-03-21T18:49:22.426Z,101908.61
2018-03-21T18:51:49.978Z,101903.80
2018-03-21T18:54:17.544Z,101902.72
2018-03-21T18:56:45.094Z,101906.34
2018-03-21T18:59:12.638Z,101901.89
2018-03-21T19:01:40.145Z,101911.91
2018-03-21T19:04:07.709Z,101898.22
2018-03-21T19:06:35.292Z,101896.11
2018-03-21T19:09:03.229Z,101898.91
2018-03-21T19:11:30.789Z,101898.01
2018-03-21T19:13:58.639Z,101904.46
2018-03-21T19:16:26.173Z,101898.96
2018-03-21T19:18:53.702Z,101897.01
2018-03-21T19:21:21.236Z,101893.76
2018-03-21T19:23:48.833Z,101894.55
2018-03-21T19:26:16.451Z,101886.64
2018-03-21T19:28:44.315Z,101890.69
2018-03-21T19:31:11.837Z,101885.11
2018-03-21T19:33:40.192Z,101880.30
2018-03-21T19:36:08.019Z,101882.25
2018-03-21T19:38:35.898Z,101877.14
2018-03-21T19:41:03.489Z,101885.38
2018-03-21T19:43:31.047Z,101884.00
2018-03-21T19:45:58.778Z,101876.70
2018-03-21T19:48:26.334Z,101874.48
2018-03-21T19:50:54.187Z,101876.55
2018-03-21T19:53:21.785Z,101878.73
2018-03-21T19:55:49.353Z,101871.60
2018-03-21T19:58:16.887Z,101871.60
2018-03-21T20:00:44.686Z,101863.36
2018-03-21T20:03:12.241Z,101872.42
2018-03-21T20:05:39.826Z,101864.41
2018-03-21T20:08:07.638Z,101865.18
2018-03-21T20:10:35.206Z,101858.16
2018-03-21T20:13:02.976Z,101858.97
2018-03-21T20:15:30.859Z,101853.52
2018-03-21T20:17:58.419Z,101852.23
2018-03-21T20:20:26.052Z,101849.88
2018-03-21T20:22:53.707Z,101849.91
2018-03-21T20:25:21.282Z,101840.45
2018-03-21T20:27:49.166Z,101846.90
2018-03-21T20:30:16.686Z,101848.41
2018-03-21T20:32:44.222Z,101842.22
2018-03-21T20:35:11.863Z,101841.08
2018-03-21T20:37:39.448Z,101833.37
2018-03-21T20:40:06.978Z,101832.97
2018-03-21T20:42:34.532Z,101822.12
2018-03-21T20:45:02.089Z,101826.58
2018-03-21T20:47:30.331Z,101831.17
2018-03-21T20:49:57.885Z,101825.65
2018-03-21T20:52:26.430Z,101825.80
2018-03-21T20:54:53.960Z,101821.77
2018-03-21T20:57:21.631Z,101820.08
2018-03-21T20:59:49.190Z,101821.30
2018-03-21T21:02:16.923Z,101824.48
2018-03-21T21:04:44.683Z,101824.75
2018-03-21T21:07:12.268Z,101813.73
2018-03-21T21:09:39.854Z,101810.16
2018-03-21T21:12:08.138Z,101814.50
2018-03-21T21:14:35.718Z,101806.41
2018-03-21T21:17:03.260Z,101807.05
2018-03-21T21:19:30.798Z,101806.26
2018-03-21T21:21:58.322Z,101799.60
2018-03-21T21:24:25.888Z,101794.69
2018-03-21T21:26:53.534Z,101793.23
2018-03-21T21:29:21.365Z,101796.64
2018-03-21T21:31:48.944Z,101790.56
2018-03-21T21:34:16.769Z,101790.27
2018-03-21T21:36:44.534Z,101789.42
2018-03-21T21:39:12.160Z,101783.83
2018-03-21T21:41:39.717Z,101786.78
2018-03-21T21:44:08.120Z,101782.47
2018-03-21T21:46:35.688Z,101782.66
2018-03-21T21:49:03.399Z,101779.67
2018-03-21T21:51:30.973Z,101781.12
2018-03-21T21:53:58.540Z,101776.33
2018-03-21T21:56:26.087Z,101770.06
2018-03-21T21:58:53.690Z,101776.12
2018-03-21T22:01:21.358Z,101775.30
2018-03-21T22:03:49.603Z,101772.64
2018-03-21T22:06:17.433Z,101770.21
2018-03-21T22:08:45.128Z,101766.00
2018-03-21T22:11:12.870Z,101761.12
2018-03-21T22:13:40.738Z,101757.46
2018-03-21T22:16:08.497Z,101764.42
2018-03-21T22:18:36.236Z,101751.97
2018-03-21T22:21:04.633Z,101747.06
2018-03-21T22:23:32.160Z,101745.53
2018-03-21T22:25:59.910Z,101742.83
2018-03-21T22:28:28.243Z,101730.22
2018-03-21T22:30:55.826Z,101719.54
2018-03-21T22:33:23.344Z,101724.78
2018-03-21T22:35:50.951Z,101731.59
2018-03-21T22:38:18.492Z,101728.89
2018-03-21T22:40:46.042Z,101720.47
2018-03-21T22:43:13.587Z,101718.96
2018-03-21T22:45:41.355Z,101714.13
2018-03-21T22:48:08.878Z,101710.25
2018-03-21T22:50:36.380Z,101712.58
2018-03-21T22:53:04.239Z,101709.57
2018-03-21T22:55:31.821Z,101710.05
2018-03-21T22:57:59.329Z,101706.91
2018-03-21T23:00:26.881Z,101702.57
2018-03-21T23:02:54.698Z,101706.05
2018-03-21T23:05:22.211Z,101693.67
2018-03-21T23:07:49.774Z,101696.38
2018-03-21T23:10:17.281Z,101693.41
2018-03-21T23:12:44.806Z,101692.48
2018-03-21T23:15:12.380Z,101688.42
2018-03-21T23:17:39.878Z,101681.88
2018-03-21T23:20:07.719Z,101687.86
2018-03-21T23:22:35.295Z,101683.63
2018-03-21T23:25:02.896Z,101680.39
2018-03-21T23:27:30.429Z,101672.88
2018-03-21T23:29:57.990Z,101669.25
2018-03-21T23:32:25.520Z,101668.48
2018-03-21T23:34:53.030Z,101661.81
2018-03-21T23:37:20.586Z,101654.69
2018-03-21T23:39:48.080Z,101650.53
2018-03-21T23:42:16.667Z,101640.91
2018-03-21T23:44:44.435Z,101637.42
2018-03-21T23:47:11.955Z,101644.07
2018-03-21T23:49:39.472Z,101643.83
2018-03-21T23:52:07.006Z,101647.79
2018-03-21T23:54:34.590Z,101640.55
2018-03-21T23:57:02.131Z,101640.22
2018-03-21T23:59:29.686Z,101638.20
